ADDS METAR Data INFO
IDs: Format: Raw Decoded Include TAF

Data at: 0934 UTC 11 Dec 2017

KCJR 110915Z AUTO 00000KT 10SM OVC065 M02/M04 A3004 RMK AO2 T10231044
KCJR 110855Z AUTO 00000KT 10SM BKN065 M02/M04 A3004 RMK AO2 T10191042
KCJR 110835Z AUTO 00000KT 10SM BKN065 M02/M04 A3004 RMK AO2 T10191043
KCJR 110815Z AUTO 00000KT 10SM BKN065 M01/M04 A3004 RMK AO2 T10111040
KCJR 110755Z AUTO 00000KT 10SM SCT065 M01/M04 A3004 RMK AO2 T10091042
KCJR 110735Z AUTO 00000KT 10SM CLR 00/M04 A3004 RMK AO2 T00001040
KCJR 110715Z AUTO 00000KT 10SM SCT110 01/M04 A3004 RMK AO2 T00101040
KCJR 110650Z AUTO 00000KT 10SM OVC120 02/M04 A3003 RMK AO2 T00201042
KCJR 110635Z AUTO 16003KT 10SM BKN120 02/M04 A3003 RMK AO2 T00211043
KCJR 110615Z AUTO 17004KT 10SM SCT100 BKN120 02/M04 A3003 RMK AO2 T00221045
KCJR 110555Z AUTO 17003KT 10SM OVC100 02/M04 A3004 RMK AO2 T00231045 10031 20020
KCJR 110535Z AUTO 16003KT 10SM OVC100 03/M05 A3004 RMK AO2 T00251048
KCJR 110515Z AUTO 16004KT 10SM OVC100 02/M05 A3005 RMK AO2 T00231049
KCJR 110455Z AUTO 00000KT 10SM OVC100 02/M05 A3005 RMK AO2 T00231051 400571040
KCJR 110435Z AUTO 17003KT 10SM OVC100 03/M05 A3005 RMK AO2 T00251053
KCJR 110410Z AUTO 18003KT 10SM OVC100 03/M05 A3005 RMK AO2 T00251052
KCJR 110355Z AUTO 18003KT 10SM OVC100 03/M05 A3005 RMK AO2 T00251053
KCJR 110335Z AUTO 00000KT 10SM OVC100 02/M05 A3005 RMK AO2 T00211050
KCJR 110315Z AUTO 00000KT 10SM OVC100 03/M05 A3006 RMK AO2 T00251051
KCJR 110255Z AUTO 00000KT 10SM OVC100 02/M05 A3006 RMK AO2 T00211047
KCJR 110235Z AUTO 00000KT 10SM OVC100 02/M05 A3006 RMK AO2 T00211051
KCJR 110215Z AUTO 00000KT 10SM OVC100 03/M06 A3006 RMK AO2 T00281056
KCJR 110155Z AUTO 00000KT 10SM OVC100 03/M06 A3006 RMK AO2 T00261058
KCJR 110135Z AUTO 00000KT 10SM OVC100 02/M06 A3006 RMK AO2 T00231056
KCJR 110115Z AUTO 21003KT 10SM OVC100 03/M06 A3006 RMK AO2 T00271058
KCJR 110055Z AUTO 20003KT 10SM OVC100 03/M06 A3007 RMK AO2 T00301060
KCJR 110035Z AUTO 21004KT 10SM OVC100 03/M06 A3006 RMK AO2 T00281057
KCJR 110015Z AUTO 21003KT 10SM OVC100 03/M06 A3006 RMK AO2 T00271059
KCJR 102355Z AUTO 22004KT 10SM OVC100 02/M06 A3006 RMK AO2 T00231056 10057 20016
KCJR 102335Z AUTO 21003KT 10SM OVC110 02/M06 A3006 RMK AO2 T00201062
KCJR 102315Z AUTO 00000KT 10SM BKN100 02/M06 A3006 RMK AO2 T00201060
KCJR 102255Z AUTO 00000KT 10SM CLR 02/M05 A3006 RMK AO2 T00221055
KCJR 102235Z AUTO 00000KT 10SM CLR 03/M06 A3006 RMK AO2 T00281057
KCJR 102215Z AUTO 22003KT 10SM CLR 03/M06 A3006 RMK AO2 T00331062
KCJR 102155Z AUTO 22003KT 10SM CLR 04/M07 A3004 RMK AO2 T00391067
KCJR 102135Z AUTO 22004KT 10SM CLR 05/M07 A3005 RMK AO2 T00451069
KCJR 102115Z AUTO 25006KT 10SM CLR 05/M07 A3005 RMK AO2 T00461074
KCJR 102055Z AUTO 23006KT 10SM CLR 05/M08 A3004 RMK AO2 T00501076
KCJR 102035Z AUTO 23007KT 10SM CLR 05/M08 A3004 RMK AO2 T00521076
KCJR 102015Z AUTO 24007KT 10SM SCT049 06/M07 A3004 RMK AO2 T00551066
KCJR 101955Z AUTO 24009KT 10SM SCT049 06/M06 A3005 RMK AO2 T00571062
KCJR 101935Z AUTO 23007KT 10SM CLR 06/M06 A3005 RMK AO2 T00571056
KCJR 101915Z AUTO 23008KT 10SM SCT048 06/M05 A3005 RMK AO2 T00571054
KCJR 101855Z AUTO 26007KT 10SM SCT046 06/M05 A3006 RMK AO2 T00551054
KCJR 101835Z AUTO 24005KT 10SM OVC046 05/M05 A3006 RMK AO2 T00531049
KCJR 101815Z AUTO 26005KT 10SM BKN046 04/M05 A3006 RMK AO2 T00431055
KCJR 101755Z AUTO 28005KT 10SM BKN044 04/M06 A3006 RMK AO2 60013 T00441058 10046 21040
KCJR 101735Z AUTO 23005KT 10SM BKN042 OVC048 04/M04 A3007 RMK AO2 T00411045
KCJR 101715Z AUTO 22004KT 10SM BKN049 04/M05 A3008 RMK AO2 T00431047
KCJR 101655Z AUTO 26005KT 10SM SCT049 04/M05 A3009 RMK AO2 P0006 T00371048
KCJR 101635Z AUTO 23006KT 10SM BKN049 04/M03 A3010 RMK AO2 P0006 T00371029
KCJR 101615Z AUTO 19006KT 10SM BKN049 03/M03 A3010 RMK AO2 P0002 T00251032
KCJR 101555Z AUTO 21004KT 10SM BKN049 02/M04 A3010 RMK AO2 P0006 T00211037
KCJR 101535Z AUTO 22004KT 10SM BKN049 02/M03 A3010 RMK AO2 P0004 T00201032
KCJR 101515Z AUTO 24006KT 10SM SCT049 02/M04 A3010 RMK AO2 T00191042
KCJR 101455Z AUTO 23004KT 10SM BKN049 01/M03 A3009 RMK AO2 P0001 60001 T00121034
KCJR 101435Z AUTO 22005KT 10SM BKN049 01/M05 A3009 RMK AO2 P0001 T00081048
KCJR 101415Z AUTO 21004KT 10SM OVC049 00/M04 A3009 RMK AO2 P0001 T00001038
KCJR 101355Z AUTO 00000KT 10SM OVC049 00/M04 A3008 RMK AO2 T10051045
KCJR 101335Z AUTO 19003KT 10SM BKN049 M02/M04 A3007 RMK AO2 T10211041
KCJR 101315Z AUTO 00000KT 10SM SCT049 M03/M05 A3006 RMK AO2 T10351053
KCJR 101255Z AUTO 22004KT 10SM SCT047 M03/M05 A3005 RMK AO2 T10351053
KCJR 101235Z AUTO 00000KT 10SM OVC047 M04/M06 A3004 RMK AO2 T10371056
KCJR 101215Z AUTO 25003KT 10SM BKN047 M03/M05 A3004 RMK AO2 T10311046
KCJR 101155Z AUTO 12004KT 10SM CLR M03/M05 A3002 RMK AO2 70001 T10351050 10003 21036
KCJR 101135Z AUTO 30003KT 10SM SCT050 M03/M06 A3001 RMK AO2 T10311057
KCJR 101115Z AUTO 00000KT 10SM BKN050 00/M06 A3000 RMK AO2 T10021056
KCJR 101055Z AUTO 30003KT 10SM BKN050 00/M05 A3000 RMK AO2 T00001054
KCJR 101035Z AUTO 28003KT 10SM OVC060 00/M05 A2998 RMK AO2 T10011053
KCJR 101015Z AUTO 33003KT 10SM OVC060 00/M05 A2998 RMK AO2 T00001055
KCJR 100955Z AUTO 00000KT 10SM SCT060 M01/M05 A2996 RMK AO2 T10071047
KCJR 100935Z AUTO 27003KT 10SM SCT060 00/M05 A2996 RMK AO2 T00001047
KCJR 100915Z AUTO 30003KT 10SM BKN060 00/M04 A2994 RMK AO2 T00011040
KCJR 100855Z AUTO 00000KT 1SM BR OVC060 M01/M02 A2994 RMK AO2 T10131021
KCJR 100835Z AUTO 00000KT 3/4SM BR BKN060 OVC120 M01/M02 A2993 RMK AO2 T10111020
KCJR 100815Z AUTO 00000KT 1 3/4SM BR SCT060 SCT075 BKN120 M01/M01 A2992 RMK AO2 T10061015
KCJR 100755Z AUTO 00000KT 4SM BR BKN080 BKN085 BKN120 00/M01 A2992 RMK AO2 T10011011
KCJR 100735Z AUTO 00000KT 5SM BR OVC065 00/M01 A2992 RMK AO2 T00001010
KCJR 100715Z AUTO 00000KT 5SM BR OVC075 00/00 A2991 RMK AO2 T00021005
KCJR 100655Z AUTO 00000KT 3SM BR SCT060 OVC070 00/M01 A2990 RMK AO2 T00001007
KCJR 100635Z AUTO 00000KT 4SM BR SCT036 BKN055 OVC065 00/M01 A2990 RMK AO2 T00021006
KCJR 100615Z AUTO 00000KT 5SM BR SCT040 SCT055 OVC075 00/00 A2989 RMK AO2 T00021005
KCJR 100555Z AUTO 00000KT 4SM BR SCT006 BKN060 OVC075 00/M01 A2989 RMK AO2 T00001007 10000 21032
KCJR 100535Z AUTO 00000KT 4SM BR SCT006 OVC060 00/M01 A2988 RMK AO2 T10011010
KCJR 100515Z AUTO 00000KT 4SM BR OVC006 00/M01 A2988 RMK AO2 T10011011
KCJR 100455Z AUTO 00000KT 5SM BR OVC006 00/M01 A2988 RMK AO2 T10031011 400201032
KCJR 100435Z AUTO 00000KT 4SM BR OVC006 M01/M01 A2988 RMK AO2 T10061015
KCJR 100415Z AUTO 00000KT 4SM BR OVC006 M01/M01 A2988 RMK AO2 T10071015
KCJR 100355Z AUTO 00000KT 4SM BR OVC008 M01/M02 A2988 RMK AO2 T10101018
KCJR 100335Z AUTO 00000KT 5SM BR OVC008 M01/M02 A2988 RMK AO2 T10101018
KCJR 100315Z AUTO 00000KT 4SM BR SCT002 OVC008 M01/M02 A2987 RMK AO2 T10121021
KCJR 100255Z AUTO 00000KT 4SM BR SCT002 OVC008 M01/M02 A2986 RMK AO2 T10151025
KCJR 100235Z AUTO 00000KT 5SM BR BKN004 OVC008 M02/M03 A2986 RMK AO2 T10171027
KCJR 100215Z AUTO 00000KT 4SM BR OVC006 M02/M03 A2986 RMK AO2 T10231033
KCJR 100155Z AUTO 00000KT 3/4SM BR OVC006 M03/M04 A2985 RMK AO2 T10311042
KCJR 100135Z AUTO 00000KT 1/2SM FZFG BKN004 BKN020 BKN080 M02/M03 A2985 RMK AO2 T10231032
KCJR 100115Z AUTO 00000KT 4SM BR BKN020 BKN080 M01/M02 A2985 RMK AO2 T10131022
KCJR 100055Z AUTO 00000KT 5SM BR SCT010 BKN020 OVC055 M01/M02 A2986 RMK AO2 T10131022
KCJR 100035Z AUTO 00000KT 5SM BR SCT008 BKN060 OVC070 M01/M02 A2985 RMK AO2 T10101020
KCJR 100015Z AUTO 00000KT 4SM -SN SCT008 BKN050 OVC070 M01/M02 A2984 RMK AO2 T10121021
KCJR 092355Z AUTO 00000KT 2 1/2SM -SN SCT023 BKN048 OVC090 00/M02 A2983 RMK AO2 VIS 1 1/2V3 60001 T10051016 10005 21005
KCJR 092335Z AUTO 00000KT 1 3/4SM -SN BKN023 OVC030 00/M01 A2983 RMK AO2 T10051015
KCJR 092315Z AUTO 00000KT 3SM -SN OVC033 00/M01 A2983 RMK AO2 T10051015
KCJR 092255Z AUTO 00000KT 3SM -SN BKN028 OVC034 00/M02 A2982 RMK AO2 T10051016
KCJR 092235Z AUTO 00000KT 2 1/2SM -SN SCT005 SCT017 OVC024 00/M01 A2982 RMK AO2 T10041015
KCJR 092215Z AUTO 00000KT 1 3/4SM -SN SCT005 BKN017 OVC026 00/M01 A2982 RMK AO2 T10031014
KCJR 092155Z AUTO 00000KT 1 1/4SM -SN BKN005 OVC017 00/M01 A2982 RMK AO2 T10021013
KCJR 092135Z AUTO 00000KT 1SM -SN BKN005 OVC018 00/M01 A2982 RMK AO2 T10021015